createdAt,value
2022-08-12T00:00:09.534Z,4.80
2022-08-12T00:02:55.732Z,3.10
2022-08-12T00:06:01.699Z,5.73
2022-08-12T00:08:50.701Z,3.00
2022-08-12T00:11:37.123Z,3.90
2022-08-12T00:14:23.399Z,3.50
2022-08-12T00:17:09.997Z,5.30
2022-08-12T00:19:55.814Z,4.60
2022-08-12T00:22:42.227Z,3.73
2022-08-12T00:26:01.224Z,3.50
2022-08-12T00:28:35.872Z,3.40
2022-08-12T00:31:21.437Z,5.13
2022-08-12T00:34:07.104Z,3.63
2022-08-12T00:36:52.787Z,3.43
2022-08-12T00:39:39.841Z,4.43
2022-08-12T00:42:11.215Z,4.43
2022-08-12T00:44:44.352Z,4.17
2022-08-12T00:47:25.278Z,4.33
2022-08-12T00:49:55.968Z,3.73
2022-08-12T00:52:23.981Z,4.07
2022-08-12T00:54:52.646Z,4.00
2022-08-12T00:57:42.773Z,5.97
2022-08-12T01:00:14.363Z,4.17
2022-08-12T01:02:55.839Z,4.50
2022-08-12T01:05:44.178Z,7.67
2022-08-12T01:08:30.899Z,6.80
2022-08-12T01:11:16.540Z,7.00
2022-08-12T01:13:47.680Z,4.37
2022-08-12T01:16:20.551Z,6.87
2022-08-12T01:18:47.946Z,5.33
2022-08-12T01:21:27.405Z,5.13
2022-08-12T01:24:29.636Z,4.53
2022-08-12T01:27:08.083Z,6.60
2022-08-12T01:29:41.925Z,5.30
2022-08-12T01:32:12.057Z,7.37
2022-08-12T01:34:42.159Z,6.33
2022-08-12T01:37:10.462Z,5.03
2022-08-12T01:40:36.918Z,4.27
2022-08-12T01:42:49.692Z,4.57
2022-08-12T01:45:23.054Z,4.60
2022-08-12T01:48:19.866Z,4.90
2022-08-12T01:51:24.436Z,5.20
2022-08-12T01:54:14.294Z,5.97
2022-08-12T01:56:59.143Z,5.00
2022-08-12T01:59:51.034Z,4.70
2022-08-12T02:02:22.357Z,5.23
2022-08-12T02:05:35.368Z,4.97
2022-08-12T02:08:46.616Z,4.40
2022-08-12T02:11:32.267Z,6.40
2022-08-12T02:14:02.368Z,5.23
2022-08-12T02:16:41.601Z,4.30
2022-08-12T02:19:28.714Z,4.03
2022-08-12T02:22:14.912Z,4.03
2022-08-12T02:24:44.485Z,6.23
2022-08-12T02:27:14.221Z,5.57
2022-08-12T02:29:42.003Z,5.60
2022-08-12T02:32:10.233Z,3.90
2022-08-12T02:34:38.129Z,6.83
2022-08-12T02:37:05.543Z,6.77
2022-08-12T02:39:36.194Z,4.47
2022-08-12T02:42:07.128Z,3.87
2022-08-12T02:44:40.495Z,7.87
2022-08-12T02:47:18.256Z,4.57
2022-08-12T02:49:58.982Z,4.27
2022-08-12T02:52:27.531Z,5.90
2022-08-12T02:55:01.601Z,5.77
2022-08-12T02:57:32.239Z,6.23
2022-08-12T03:00:04.159Z,5.47
2022-08-12T03:02:33.711Z,5.93
2022-08-12T03:05:04.416Z,4.30
2022-08-12T03:07:56.151Z,4.87
2022-08-12T03:10:37.027Z,6.20
2022-08-12T03:13:07.587Z,4.60
2022-08-12T03:15:36.044Z,8.27
2022-08-12T03:18:28.660Z,4.57
2022-08-12T03:20:59.095Z,4.77
2022-08-12T03:23:30.206Z,5.00
2022-08-12T03:26:01.936Z,4.83
2022-08-12T03:28:51.475Z,8.03
2022-08-12T03:31:28.417Z,10.47
2022-08-12T03:34:05.466Z,5.80
2022-08-12T03:36:35.543Z,7.10
2022-08-12T03:39:17.605Z,6.70
2022-08-12T03:42:17.498Z,5.47
2022-08-12T03:45:11.744Z,4.47
2022-08-12T03:48:13.362Z,5.37
2022-08-12T03:51:07.191Z,5.60
2022-08-12T03:53:53.973Z,4.53
2022-08-12T03:56:39.757Z,6.87
2022-08-12T03:59:26.412Z,9.50
2022-08-12T04:01:58.054Z,5.33
2022-08-12T04:04:34.320Z,8.40
2022-08-12T04:07:09.039Z,6.03
2022-08-12T04:09:42.013Z,7.00
2022-08-12T04:12:32.434Z,7.40
2022-08-12T04:15:01.996Z,7.03
2022-08-12T04:17:32.282Z,6.40
2022-08-12T04:20:01.220Z,5.40
2022-08-12T04:22:31.226Z,6.33
2022-08-12T04:25:02.945Z,4.50
2022-08-12T04:27:32.283Z,7.03
2022-08-12T04:30:31.589Z,4.77
2022-08-12T04:32:53.894Z,5.07
2022-08-12T04:35:21.672Z,7.87
2022-08-12T04:37:58.759Z,5.40
2022-08-12T04:40:31.178Z,5.77
2022-08-12T04:43:01.739Z,7.13
2022-08-12T04:45:33.273Z,5.77
2022-08-12T04:48:02.711Z,4.87
2022-08-12T04:50:34.936Z,8.13
2022-08-12T04:53:09.098Z,5.97
2022-08-12T04:55:41.382Z,5.67
2022-08-12T04:58:09.326Z,7.00
2022-08-12T05:00:38.245Z,6.03
2022-08-12T05:03:08.977Z,7.03
2022-08-12T05:05:40.365Z,6.03
2022-08-12T05:08:18.433Z,7.10
2022-08-12T05:10:46.882Z,5.97
2022-08-12T05:13:18.847Z,4.67
2022-08-12T05:16:00.178Z,13.20
2022-08-12T05:18:39.533Z,5.57
2022-08-12T05:21:09.170Z,4.33
2022-08-12T05:23:38.450Z,5.23
2022-08-12T05:26:06.349Z,4.73
2022-08-12T05:28:34.730Z,5.37
2022-08-12T05:31:02.323Z,4.30
2022-08-12T05:33:38.016Z,5.97
2022-08-12T05:36:12.764Z,4.23
2022-08-12T05:38:58.773Z,6.87
2022-08-12T05:41:32.270Z,3.97
2022-08-12T05:44:03.155Z,4.20
2022-08-12T05:46:31.422Z,3.97
2022-08-12T05:49:00.967Z,4.23
2022-08-12T05:51:40.911Z,4.37
2022-08-12T05:54:11.337Z,4.33
2022-08-12T05:56:40.953Z,5.93
2022-08-12T05:59:11.344Z,6.90
2022-08-12T06:02:08.788Z,7.93
2022-08-12T06:04:30.762Z,6.93
2022-08-12T06:06:58.095Z,4.67
2022-08-12T06:09:30.397Z,7.63
2022-08-12T06:12:05.855Z,6.13
2022-08-12T06:14:39.029Z,4.23
2022-08-12T06:17:09.247Z,4.27
2022-08-12T06:20:26.937Z,6.17
2022-08-12T06:22:27.081Z,4.10
2022-08-12T06:24:54.432Z,6.83
2022-08-12T06:27:22.102Z,2.93
2022-08-12T06:30:08.231Z,4.73
2022-08-12T06:32:58.511Z,4.73
2022-08-12T06:35:48.100Z,6.87
2022-08-12T06:38:20.882Z,9.47
2022-08-12T06:41:11.243Z,4.53
2022-08-12T06:44:05.986Z,3.60
2022-08-12T06:46:30.907Z,3.67
2022-08-12T06:48:59.435Z,3.03
2022-08-12T06:51:29.225Z,4.10
2022-08-12T06:53:59.436Z,3.83
2022-08-12T06:56:59.529Z,7.03
2022-08-12T06:59:17.535Z,5.93
2022-08-12T07:01:51.087Z,4.37
2022-08-12T07:04:37.292Z,4.17
2022-08-12T07:07:08.558Z,3.00
2022-08-12T07:10:06.558Z,3.93
2022-08-12T07:12:28.171Z,8.10
2022-08-12T07:14:58.303Z,3.77
2022-08-12T07:17:36.544Z,3.43
2022-08-12T07:20:06.123Z,4.13
2022-08-12T07:22:34.092Z,6.63
2022-08-12T07:25:28.074Z,4.43
2022-08-12T07:28:00.439Z,3.77
2022-08-12T07:30:45.237Z,9.70
2022-08-12T07:33:14.121Z,3.20
2022-08-12T07:35:45.658Z,4.70
2022-08-12T07:38:29.314Z,2.40
2022-08-12T07:41:08.256Z,5.30
2022-08-12T07:43:46.543Z,5.03
2022-08-12T07:46:23.423Z,3.50
2022-08-12T07:48:56.299Z,5.97
2022-08-12T07:51:25.893Z,4.27
2022-08-12T07:54:00.232Z,5.60
2022-08-12T07:56:31.823Z,10.13
2022-08-12T07:59:01.274Z,3.57
2022-08-12T08:01:29.765Z,2.37
2022-08-12T08:04:19.068Z,3.37
2022-08-12T08:06:49.771Z,3.83
2022-08-12T08:09:19.993Z,3.30
2022-08-12T08:12:06.210Z,4.03
2022-08-12T08:14:33.832Z,7.73
2022-08-12T08:17:06.804Z,6.80
2022-08-12T08:19:48.524Z,2.63
2022-08-12T08:22:41.674Z,3.23
2022-08-12T08:25:34.447Z,6.50
2022-08-12T08:28:06.011Z,4.10
2022-08-12T08:30:35.736Z,4.60
2022-08-12T08:33:03.182Z,5.60
2022-08-12T08:35:47.857Z,3.40
2022-08-12T08:38:31.945Z,4.83
2022-08-12T08:42:16.663Z,2.30
2022-08-12T08:44:14.614Z,4.60
2022-08-12T08:46:43.894Z,2.67
2022-08-12T08:49:12.451Z,4.53
2022-08-12T08:51:40.281Z,3.80
2022-08-12T08:54:15.957Z,3.53
2022-08-12T08:56:50.183Z,3.60
2022-08-12T08:59:19.555Z,4.07
2022-08-12T09:01:48.772Z,3.97
2022-08-12T09:05:09.770Z,5.77
2022-08-12T09:07:17.661Z,2.00
2022-08-12T09:10:02.462Z,3.03
2022-08-12T09:12:55.777Z,4.80
2022-08-12T09:18:26.476Z,7.73
2022-08-12T09:20:59.712Z,2.43
2022-08-12T09:24:07.567Z,5.07
2022-08-12T09:26:45.965Z,5.27
2022-08-12T09:30:11.013Z,2.80
2022-08-12T09:32:56.096Z,5.97
2022-08-12T09:35:01.381Z,5.07
2022-08-12T09:37:57.533Z,2.43
2022-08-12T09:42:34.959Z,3.97
2022-08-12T09:44:47.843Z,3.47
2022-08-12T09:47:36.512Z,4.43
2022-08-12T09:50:05.427Z,1.70
2022-08-12T09:53:16.108Z,2.00
2022-08-12T09:56:05.399Z,2.67
2022-08-12T09:58:58.969Z,2.93
2022-08-12T10:01:24.882Z,4.33
2022-08-12T10:04:05.790Z,3.77
2022-08-12T10:06:36.184Z,6.07
2022-08-12T10:09:08.307Z,3.57
2022-08-12T10:12:11.935Z,2.97
2022-08-12T10:14:50.369Z,3.40
2022-08-12T10:17:21.765Z,2.47
2022-08-12T10:19:52.753Z,4.07
2022-08-12T10:22:39.663Z,3.60
2022-08-12T10:26:18.359Z,3.47
2022-08-12T10:28:39.015Z,2.80
2022-08-12T10:31:16.711Z,2.60
2022-08-12T10:34:05.144Z,3.13
2022-08-12T10:36:40.174Z,2.93
2022-08-12T10:39:44.258Z,3.10
2022-08-12T10:42:29.891Z,3.10
2022-08-12T10:45:04.337Z,7.07
2022-08-12T10:48:07.815Z,2.70
2022-08-12T10:50:35.926Z,3.57
2022-08-12T10:53:19.592Z,2.30
2022-08-12T10:55:50.007Z,2.53
2022-08-12T10:58:28.226Z,2.23
2022-08-12T11:01:50.008Z,4.63
2022-08-12T11:04:25.038Z,2.27
2022-08-12T11:07:05.238Z,3.70
2022-08-12T11:09:55.616Z,2.80
2022-08-12T11:12:55.297Z,2.60
2022-08-12T11:15:18.923Z,4.23
2022-08-12T11:17:52.717Z,2.60
2022-08-12T11:20:24.463Z,2.60
2022-08-12T11:23:03.682Z,3.60
2022-08-12T11:25:56.238Z,2.80
2022-08-12T11:28:40.289Z,2.47
2022-08-12T11:31:13.991Z,4.77
2022-08-12T11:34:06.422Z,3.80
2022-08-12T11:36:31.282Z,4.07
2022-08-12T11:39:05.189Z,4.90
2022-08-12T11:41:37.589Z,2.30
2022-08-12T11:44:37.289Z,2.97
2022-08-12T11:46:55.583Z,2.23
2022-08-12T11:49:30.613Z,2.90
2022-08-12T11:52:02.451Z,2.27
2022-08-12T11:54:30.921Z,3.20
2022-08-12T11:57:02.088Z,2.53
2022-08-12T12:02:20.152Z,4.70
2022-08-12T12:04:53.100Z,2.50
2022-08-12T12:08:36.169Z,2.10
2022-08-12T12:10:15.598Z,3.13
2022-08-12T12:12:49.691Z,2.83
2022-08-12T12:15:24.654Z,2.20
2022-08-12T12:17:55.780Z,3.20
2022-08-12T12:20:26.015Z,2.63
2022-08-12T12:22:55.260Z,2.43
2022-08-12T12:26:08.376Z,2.20
2022-08-12T12:28:36.701Z,4.33
2022-08-12T12:30:57.659Z,2.10
2022-08-12T12:33:27.274Z,4.30
2022-08-12T12:36:20.709Z,2.33
2022-08-12T12:38:51.068Z,2.63
2022-08-12T12:41:20.999Z,3.40
2022-08-12T12:44:04.051Z,4.90
2022-08-12T12:46:31.934Z,2.83
2022-08-12T12:48:59.277Z,2.07
2022-08-12T12:51:56.393Z,3.53
2022-08-12T12:54:13.952Z,3.57
2022-08-12T12:59:58.655Z,9.23
2022-08-12T13:02:31.695Z,4.20
2022-08-12T13:05:00.316Z,3.13
2022-08-12T13:07:49.455Z,1.93
2022-08-12T13:10:17.362Z,3.40
2022-08-12T13:12:45.978Z,2.87
2022-08-12T13:15:43.592Z,2.87
2022-08-12T13:18:05.470Z,2.23
2022-08-12T13:20:38.445Z,3.93
2022-08-12T13:23:36.207Z,2.53
2022-08-12T13:26:02.145Z,3.77
2022-08-12T13:28:31.458Z,2.40
2022-08-12T13:31:00.485Z,1.97
2022-08-12T13:34:32.169Z,2.30
2022-08-12T13:36:20.493Z,2.50
2022-08-12T13:38:54.584Z,2.40
2022-08-12T13:41:35.917Z,2.90
2022-08-12T13:44:10.542Z,2.87
2022-08-12T13:46:58.844Z,2.03
2022-08-12T13:49:55.315Z,2.20
2022-08-12T13:52:18.703Z,2.13
2022-08-12T13:54:56.690Z,4.87
2022-08-12T13:57:26.657Z,3.57
2022-08-12T13:59:55.719Z,2.53
2022-08-12T14:02:28.599Z,2.43
2022-08-12T14:04:57.061Z,4.47
2022-08-12T14:07:26.093Z,3.27
2022-08-12T14:10:16.584Z,2.23
2022-08-12T14:12:53.935Z,2.03
2022-08-12T14:15:35.057Z,2.43
2022-08-12T14:18:13.048Z,2.97
2022-08-12T14:20:43.786Z,2.03
2022-08-12T14:24:05.510Z,3.27
2022-08-12T14:26:06.696Z,3.07
2022-08-12T14:28:45.255Z,2.80
2022-08-12T14:31:31.898Z,3.37
2022-08-12T14:34:00.045Z,4.00
2022-08-12T14:36:32.513Z,2.90
2022-08-12T14:39:12.532Z,2.30
2022-08-12T14:41:57.205Z,3.03
2022-08-12T14:44:57.196Z,2.80
2022-08-12T14:47:14.041Z,2.53
2022-08-12T14:50:41.675Z,2.67
2022-08-12T14:54:27.472Z,4.33
2022-08-12T14:58:23.273Z,2.50
2022-08-12T15:01:11.295Z,3.50
2022-08-12T15:03:52.456Z,2.10
2022-08-12T15:06:38.973Z,2.40
2022-08-12T15:09:14.012Z,5.17
2022-08-12T15:12:00.485Z,2.20
2022-08-12T15:14:31.190Z,2.53
2022-08-12T15:17:00.756Z,2.60
2022-08-12T15:20:30.870Z,3.07
2022-08-12T15:22:37.871Z,3.30
2022-08-12T15:25:09.174Z,4.13
2022-08-12T15:28:11.062Z,2.70
2022-08-12T15:30:31.737Z,4.07
2022-08-12T15:32:59.319Z,2.70
2022-08-12T15:35:38.255Z,2.37
2022-08-12T15:38:19.766Z,3.10
2022-08-12T15:40:49.771Z,2.70
2022-08-12T15:43:27.370Z,2.27
2022-08-12T15:46:16.213Z,2.27
2022-08-12T15:48:47.756Z,2.60
2022-08-12T15:51:58.402Z,2.50
2022-08-12T15:54:31.360Z,3.50
2022-08-12T15:57:10.823Z,3.10
2022-08-12T16:00:00.839Z,2.67
2022-08-12T16:02:50.714Z,2.37
2022-08-12T16:06:11.488Z,2.40
2022-08-12T16:08:16.336Z,4.93
2022-08-12T16:10:48.337Z,2.30
2022-08-12T16:13:32.358Z,2.83
2022-08-12T16:16:22.838Z,2.73
2022-08-12T16:19:04.527Z,3.17
2022-08-12T16:21:51.355Z,2.50
2022-08-12T16:24:25.279Z,4.23
2022-08-12T16:26:54.354Z,2.93
2022-08-12T16:29:52.595Z,3.60
2022-08-12T16:32:31.036Z,3.70
2022-08-12T16:34:59.851Z,3.57
2022-08-12T16:38:25.178Z,3.57
2022-08-12T16:40:23.457Z,2.73
2022-08-12T16:42:54.250Z,3.77
2022-08-12T16:45:32.353Z,3.60
2022-08-12T16:48:34.092Z,4.07
2022-08-12T16:51:12.619Z,3.10
2022-08-12T16:53:44.007Z,4.20
2022-08-12T16:56:16.930Z,2.97
2022-08-12T16:58:45.288Z,5.37
2022-08-12T17:01:14.154Z,4.03
2022-08-12T17:04:08.578Z,4.20
2022-08-12T17:06:43.521Z,4.73
2022-08-12T17:09:17.145Z,4.00
2022-08-12T17:11:52.962Z,5.07
2022-08-12T17:14:23.416Z,7.53
2022-08-12T17:16:55.830Z,9.53
2022-08-12T17:20:28.564Z,3.93
2022-08-12T17:22:15.391Z,6.73
2022-08-12T17:24:54.565Z,5.77
2022-08-12T17:27:30.890Z,7.53
2022-08-12T17:30:04.247Z,5.60
2022-08-12T17:32:36.793Z,6.33
2022-08-12T17:35:30.123Z,4.17
2022-08-12T17:38:11.589Z,3.87
2022-08-12T17:40:41.334Z,8.33
2022-08-12T17:43:54.617Z,11.37
2022-08-12T17:46:00.243Z,9.83
2022-08-12T17:48:34.833Z,12.70
2022-08-12T17:51:15.956Z,7.83
2022-08-12T17:54:11.847Z,4.70
2022-08-12T17:56:37.438Z,5.97
2022-08-12T17:59:09.660Z,5.80
2022-08-12T18:01:45.165Z,5.87
2022-08-12T18:04:22.763Z,6.73
2022-08-12T18:07:06.336Z,7.83
2022-08-12T18:09:38.145Z,6.40
2022-08-12T18:12:24.346Z,7.13
2022-08-12T18:15:01.950Z,10.77
2022-08-12T18:17:39.271Z,12.90
2022-08-12T18:20:12.563Z,20.20
2022-08-12T18:22:45.207Z,14.97
2022-08-12T18:26:14.791Z,13.53
2022-08-12T18:28:29.330Z,19.37
2022-08-12T18:31:03.103Z,8.63
2022-08-12T18:33:43.725Z,9.47
2022-08-12T18:36:22.351Z,7.50
2022-08-12T18:38:56.112Z,7.33
2022-08-12T18:41:34.174Z,8.40
2022-08-12T18:44:11.100Z,4.40
2022-08-12T18:46:59.708Z,5.40
2022-08-12T18:49:39.086Z,4.13
2022-08-12T18:52:08.692Z,9.90
2022-08-12T18:54:52.315Z,9.17
2022-08-12T18:58:07.736Z,7.53
2022-08-12T19:00:22.255Z,8.00
2022-08-12T19:02:52.040Z,9.77
2022-08-12T19:05:24.577Z,7.93
2022-08-12T19:08:12.776Z,7.00
2022-08-12T19:10:51.246Z,8.70
2022-08-12T19:13:57.608Z,9.20
2022-08-12T19:16:41.757Z,7.27
2022-08-12T19:19:18.405Z,6.57
2022-08-12T19:21:56.666Z,6.17
2022-08-12T19:24:47.491Z,4.07
2022-08-12T19:27:18.399Z,7.53
2022-08-12T19:30:07.103Z,10.40
2022-08-12T19:32:34.927Z,9.70
2022-08-12T19:36:07.556Z,10.33
2022-08-12T19:38:23.208Z,8.77
2022-08-12T19:41:03.366Z,7.03
2022-08-12T19:43:59.491Z,9.33
2022-08-12T19:46:27.990Z,7.97
2022-08-12T19:49:06.732Z,7.63
2022-08-12T19:51:38.593Z,8.67
2022-08-12T19:54:06.497Z,6.50
2022-08-12T19:56:35.157Z,6.50
2022-08-12T19:59:22.263Z,6.43
2022-08-12T20:02:02.743Z,4.90
2022-08-12T20:04:32.927Z,4.53
2022-08-12T20:07:00.331Z,5.37
2022-08-12T20:09:38.907Z,5.10
2022-08-12T20:12:13.201Z,6.90
2022-08-12T20:14:50.698Z,7.70
2022-08-12T20:17:23.686Z,10.13
2022-08-12T20:20:18.962Z,8.23
2022-08-12T20:22:49.046Z,11.13
2022-08-12T20:25:28.482Z,7.43
2022-08-12T20:28:07.012Z,5.20
2022-08-12T20:30:53.478Z,6.27
2022-08-12T20:33:50.143Z,7.30
2022-08-12T20:36:41.443Z,6.30
2022-08-12T20:39:06.020Z,6.73
2022-08-12T20:41:58.826Z,7.70
2022-08-12T20:44:28.023Z,4.67
2022-08-12T20:47:17.931Z,3.70
2022-08-12T20:49:55.939Z,5.13
2022-08-12T20:52:29.121Z,4.90
2022-08-12T20:54:58.152Z,4.67
2022-08-12T20:57:38.140Z,5.53
2022-08-12T21:00:28.482Z,6.40
2022-08-12T21:03:16.602Z,7.20
2022-08-12T21:06:12.773Z,5.63
2022-08-12T21:08:43.942Z,10.13
2022-08-12T21:11:11.782Z,7.47
2022-08-12T21:13:42.567Z,9.07
2022-08-12T21:16:10.352Z,4.50
2022-08-12T21:18:38.464Z,5.90
2022-08-12T21:21:23.118Z,6.47
2022-08-12T21:23:56.252Z,3.93
2022-08-12T21:26:24.610Z,4.10
2022-08-12T21:29:01.165Z,5.73
2022-08-12T21:32:36.285Z,4.73
2022-08-12T21:34:26.069Z,5.10
2022-08-12T21:37:26.365Z,6.33
2022-08-12T21:39:56.465Z,8.17
2022-08-12T21:42:26.975Z,6.07
2022-08-12T21:45:46.285Z,4.90
2022-08-12T21:47:44.700Z,5.97
2022-08-12T21:50:13.705Z,5.87
2022-08-12T21:52:42.445Z,5.63
2022-08-12T21:55:19.259Z,4.93
2022-08-12T21:57:54.064Z,5.93
2022-08-12T22:00:33.337Z,7.47
2022-08-12T22:04:11.126Z,6.93
2022-08-12T22:06:30.943Z,5.93
2022-08-12T22:09:16.374Z,5.67
2022-08-12T22:11:59.079Z,6.20
2022-08-12T22:14:28.936Z,7.43
2022-08-12T22:16:57.999Z,4.70
2022-08-12T22:19:26.986Z,6.77
2022-08-12T22:21:58.777Z,4.90
2022-08-12T22:24:30.453Z,7.10
2022-08-12T22:27:17.990Z,4.70
2022-08-12T22:30:07.043Z,4.10
2022-08-12T22:32:51.668Z,7.87
2022-08-12T22:35:56.282Z,7.83
2022-08-12T22:38:21.586Z,5.77
2022-08-12T22:40:52.914Z,5.20
2022-08-12T22:43:58.865Z,7.67
2022-08-12T22:46:51.886Z,5.53
2022-08-12T22:49:37.256Z,6.20
2022-08-12T22:52:12.355Z,7.60
2022-08-12T22:54:59.911Z,5.97
2022-08-12T22:57:53.598Z,5.60
2022-08-12T23:00:27.084Z,5.47
2022-08-12T23:03:00.717Z,5.87
2022-08-12T23:05:56.891Z,9.00
2022-08-12T23:08:24.054Z,5.53
2022-08-12T23:10:59.131Z,4.93
2022-08-12T23:13:45.035Z,6.47
2022-08-12T23:16:28.361Z,4.70
2022-08-12T23:19:09.347Z,12.33
2022-08-12T23:22:05.925Z,5.20
2022-08-12T23:24:35.137Z,7.13
2022-08-12T23:27:22.558Z,5.30
2022-08-12T23:30:05.916Z,4.67
2022-08-12T23:32:37.404Z,7.53
2022-08-12T23:35:06.971Z,4.67
2022-08-12T23:37:47.186Z,5.13
2022-08-12T23:40:24.755Z,7.47
2022-08-12T23:42:57.073Z,8.00
2022-08-12T23:45:31.588Z,9.20
2022-08-12T23:48:02.145Z,6.13
2022-08-12T23:50:33.406Z,7.13
2022-08-12T23:53:06.725Z,6.57
2022-08-12T23:55:45.828Z,6.60
2022-08-12T23:58:20.849Z,6.70
